sensor_id;sensor_type;location;lat;lon;timestamp;temperature;humidity
13211;DHT22;6670;51.53087800;7.23266500;2023-07-31T00:02:08;16.60;99.90
13211;DHT22;6670;51.53087800;7.23266500;2023-07-31T00:04:35;16.60;99.90
13211;DHT22;6670;51.53087800;7.23266500;2023-07-31T00:07:03;16.60;99.90
13211;DHT22;6670;51.53087800;7.23266500;2023-07-31T00:09:32;16.50;99.90
13211;DHT22;6670;51.53087800;7.23266500;2023-07-31T00:12:00;16.60;99.90
13211;DHT22;6670;51.53087800;7.23266500;2023-07-31T00:14:27;16.50;99.90
13211;DHT22;6670;51.53087800;7.23266500;2023-07-31T00:16:54;16.50;99.90
13211;DHT22;6670;51.53087800;7.23266500;2023-07-31T00:19:23;16.50;99.90
13211;DHT22;6670;51.53087800;7.23266500;2023-07-31T00:21:51;16.50;99.90
13211;DHT22;6670;51.53087800;7.23266500;2023-07-31T00:24:18;16.60;99.90
13211;DHT22;6670;51.53087800;7.23266500;2023-07-31T00:26:45;16.60;99.90
13211;DHT22;6670;51.53087800;7.23266500;2023-07-31T00:29:13;16.60;99.90
13211;DHT22;6670;51.53087800;7.23266500;2023-07-31T00:31:40;16.70;99.90
13211;DHT22;6670;51.53087800;7.23266500;2023-07-31T00:34:08;16.70;99.90
13211;DHT22;6670;51.53087800;7.23266500;2023-07-31T00:36:36;16.70;99.90
13211;DHT22;6670;51.53087800;7.23266500;2023-07-31T00:39:04;16.70;99.90
13211;DHT22;6670;51.53087800;7.23266500;2023-07-31T00:41:31;16.70;99.90
13211;DHT22;6670;51.53087800;7.23266500;2023-07-31T00:43:59;16.70;99.90
13211;DHT22;6670;51.53087800;7.23266500;2023-07-31T00:46:27;16.70;99.90
13211;DHT22;6670;51.53087800;7.23266500;2023-07-31T00:48:56;16.70;99.90
13211;DHT22;6670;51.53087800;7.23266500;2023-07-31T00:51:24;16.70;99.90
13211;DHT22;6670;51.53087800;7.23266500;2023-07-31T00:53:53;16.60;99.90
13211;DHT22;6670;51.53087800;7.23266500;2023-07-31T00:56:22;16.60;99.90
13211;DHT22;6670;51.53087800;7.23266500;2023-07-31T00:58:51;16.60;99.90
13211;DHT22;6670;51.53087800;7.23266500;2023-07-31T01:01:18;16.60;99.90
13211;DHT22;6670;51.53087800;7.23266500;2023-07-31T01:03:46;16.60;99.90
13211;DHT22;6670;51.53087800;7.23266500;2023-07-31T01:06:17;16.70;99.90
13211;DHT22;6670;51.53087800;7.23266500;2023-07-31T01:08:54;16.70;99.90
13211;DHT22;6670;51.53087800;7.23266500;2023-07-31T01:11:28;16.70;99.90
13211;DHT22;6670;51.53087800;7.23266500;2023-07-31T01:13:56;16.70;99.90
13211;DHT22;6670;51.53087800;7.23266500;2023-07-31T01:16:25;16.80;99.90
13211;DHT22;6670;51.53087800;7.23266500;2023-07-31T01:18:53;16.80;99.90
13211;DHT22;6670;51.53087800;7.23266500;2023-07-31T01:21:32;16.70;99.90
13211;DHT22;6670;51.53087800;7.23266500;2023-07-31T01:24:20;16.80;99.90
13211;DHT22;6670;51.53087800;7.23266500;2023-07-31T01:26:53;16.80;99.90
13211;DHT22;6670;51.53087800;7.23266500;2023-07-31T01:29:28;16.80;99.90
13211;DHT22;6670;51.53087800;7.23266500;2023-07-31T01:32:01;16.70;99.90
13211;DHT22;6670;51.53087800;7.23266500;2023-07-31T01:34:29;16.70;99.90
13211;DHT22;6670;51.53087800;7.23266500;2023-07-31T01:36:57;16.70;99.90
13211;DHT22;6670;51.53087800;7.23266500;2023-07-31T01:39:25;16.70;99.90
13211;DHT22;6670;51.53087800;7.23266500;2023-07-31T01:41:54;16.70;99.90
13211;DHT22;6670;51.53087800;7.23266500;2023-07-31T01:44:22;16.70;99.90
13211;DHT22;6670;51.53087800;7.23266500;2023-07-31T01:46:49;16.70;99.90
13211;DHT22;6670;51.53087800;7.23266500;2023-07-31T01:49:16;16.70;99.90
13211;DHT22;6670;51.53087800;7.23266500;2023-07-31T01:51:44;16.70;99.90
13211;DHT22;6670;51.53087800;7.23266500;2023-07-31T01:54:11;16.70;99.90
13211;DHT22;6670;51.53087800;7.23266500;2023-07-31T01:56:39;16.70;99.90
13211;DHT22;6670;51.53087800;7.23266500;2023-07-31T01:59:08;16.70;99.90
13211;DHT22;6670;51.53087800;7.23266500;2023-07-31T02:01:35;16.70;99.90
13211;DHT22;6670;51.53087800;7.23266500;2023-07-31T02:04:03;16.70;99.90
13211;DHT22;6670;51.53087800;7.23266500;2023-07-31T02:06:31;16.70;99.90
13211;DHT22;6670;51.53087800;7.23266500;2023-07-31T02:08:58;16.70;99.90
13211;DHT22;6670;51.53087800;7.23266500;2023-07-31T02:11:25;16.60;99.90
13211;DHT22;6670;51.53087800;7.23266500;2023-07-31T02:13:53;16.60;99.90
13211;DHT22;6670;51.53087800;7.23266500;2023-07-31T02:16:22;16.60;99.90
13211;DHT22;6670;51.53087800;7.23266500;2023-07-31T02:18:49;16.60;99.90
13211;DHT22;6670;51.53087800;7.23266500;2023-07-31T02:21:17;16.60;99.90
13211;DHT22;6670;51.53087800;7.23266500;2023-07-31T02:23:44;16.70;99.90
13211;DHT22;6670;51.53087800;7.23266500;2023-07-31T02:26:14;16.70;99.90
13211;DHT22;6670;51.53087800;7.23266500;2023-07-31T02:28:41;16.70;99.90
13211;DHT22;6670;51.53087800;7.23266500;2023-07-31T02:31:10;16.60;99.90
13211;DHT22;6670;51.53087800;7.23266500;2023-07-31T02:33:39;16.60;99.90
13211;DHT22;6670;51.53087800;7.23266500;2023-07-31T02:36:07;16.60;99.90
13211;DHT22;6670;51.53087800;7.23266500;2023-07-31T02:38:34;16.60;99.90
13211;DHT22;6670;51.53087800;7.23266500;2023-07-31T02:41:02;16.60;99.90
13211;DHT22;6670;51.53087800;7.23266500;2023-07-31T02:43:29;16.60;99.90
13211;DHT22;6670;51.53087800;7.23266500;2023-07-31T02:45:56;16.60;99.90
13211;DHT22;6670;51.53087800;7.23266500;2023-07-31T02:48:24;16.60;99.90
13211;DHT22;6670;51.53087800;7.23266500;2023-07-31T02:50:53;16.60;99.90
13211;DHT22;6670;51.53087800;7.23266500;2023-07-31T02:53:21;16.60;99.90
13211;DHT22;6670;51.53087800;7.23266500;2023-07-31T02:55:49;16.60;99.90
13211;DHT22;6670;51.53087800;7.23266500;2023-07-31T02:58:28;16.60;99.90
13211;DHT22;6670;51.53087800;7.23266500;2023-07-31T03:00:58;16.60;99.90
13211;DHT22;6670;51.53087800;7.23266500;2023-07-31T03:03:25;16.60;99.90
13211;DHT22;6670;51.53087800;7.23266500;2023-07-31T03:05:54;16.60;99.90
13211;DHT22;6670;51.53087800;7.23266500;2023-07-31T03:08:22;16.60;99.90
13211;DHT22;6670;51.53087800;7.23266500;2023-07-31T03:10:49;16.60;99.90
13211;DHT22;6670;51.53087800;7.23266500;2023-07-31T03:13:17;16.60;99.90
13211;DHT22;6670;51.53087800;7.23266500;2023-07-31T03:15:44;16.60;99.90
13211;DHT22;6670;51.53087800;7.23266500;2023-07-31T03:18:12;16.60;99.90
13211;DHT22;6670;51.53087800;7.23266500;2023-07-31T03:20:42;16.60;99.90
13211;DHT22;6670;51.53087800;7.23266500;2023-07-31T03:23:11;16.60;99.90
13211;DHT22;6670;51.53087800;7.23266500;2023-07-31T03:25:39;16.60;99.90
13211;DHT22;6670;51.53087800;7.23266500;2023-07-31T03:28:06;16.60;99.90
13211;DHT22;6670;51.53087800;7.23266500;2023-07-31T03:30:36;16.70;99.90
13211;DHT22;6670;51.53087800;7.23266500;2023-07-31T03:33:04;16.70;99.90
13211;DHT22;6670;51.53087800;7.23266500;2023-07-31T03:35:32;16.70;99.90
13211;DHT22;6670;51.53087800;7.23266500;2023-07-31T03:37:59;16.70;99.90
13211;DHT22;6670;51.53087800;7.23266500;2023-07-31T03:40:28;16.70;99.90
13211;DHT22;6670;51.53087800;7.23266500;2023-07-31T03:42:55;16.70;99.90
13211;DHT22;6670;51.53087800;7.23266500;2023-07-31T03:45:23;16.70;99.90
13211;DHT22;6670;51.53087800;7.23266500;2023-07-31T03:47:50;16.80;99.90
13211;DHT22;6670;51.53087800;7.23266500;2023-07-31T03:50:18;16.80;99.90
13211;DHT22;6670;51.53087800;7.23266500;2023-07-31T03:52:45;16.80;99.90
13211;DHT22;6670;51.53087800;7.23266500;2023-07-31T03:55:13;16.80;99.90
13211;DHT22;6670;51.53087800;7.23266500;2023-07-31T03:57:41;16.80;99.90
13211;DHT22;6670;51.53087800;7.23266500;2023-07-31T04:00:10;16.80;99.90
13211;DHT22;6670;51.53087800;7.23266500;2023-07-31T04:02:41;16.80;99.90
13211;DHT22;6670;51.53087800;7.23266500;2023-07-31T04:05:09;16.80;99.90
13211;DHT22;6670;51.53087800;7.23266500;2023-07-31T04:07:37;16.80;99.90
13211;DHT22;6670;51.53087800;7.23266500;2023-07-31T04:10:05;16.80;99.90
13211;DHT22;6670;51.53087800;7.23266500;2023-07-31T04:12:32;16.90;99.90
13211;DHT22;6670;51.53087800;7.23266500;2023-07-31T04:15:01;16.90;99.90
13211;DHT22;6670;51.53087800;7.23266500;2023-07-31T04:17:28;16.90;99.90
13211;DHT22;6670;51.53087800;7.23266500;2023-07-31T04:19:57;16.90;99.90
13211;DHT22;6670;51.53087800;7.23266500;2023-07-31T04:22:24;16.90;99.90
13211;DHT22;6670;51.53087800;7.23266500;2023-07-31T04:24:52;16.90;99.90
13211;DHT22;6670;51.53087800;7.23266500;2023-07-31T04:27:19;17.00;99.90
13211;DHT22;6670;51.53087800;7.23266500;2023-07-31T04:29:46;17.00;99.90
13211;DHT22;6670;51.53087800;7.23266500;2023-07-31T04:32:15;17.00;99.90
13211;DHT22;6670;51.53087800;7.23266500;2023-07-31T04:34:43;17.10;99.90
13211;DHT22;6670;51.53087800;7.23266500;2023-07-31T04:37:11;17.10;99.90
13211;DHT22;6670;51.53087800;7.23266500;2023-07-31T04:39:39;17.10;99.90
13211;DHT22;6670;51.53087800;7.23266500;2023-07-31T04:42:07;17.10;99.90
13211;DHT22;6670;51.53087800;7.23266500;2023-07-31T04:44:35;17.10;99.90
13211;DHT22;6670;51.53087800;7.23266500;2023-07-31T04:47:03;17.10;99.90
13211;DHT22;6670;51.53087800;7.23266500;2023-07-31T04:49:32;17.10;99.90
13211;DHT22;6670;51.53087800;7.23266500;2023-07-31T04:51:59;17.10;99.90
13211;DHT22;6670;51.53087800;7.23266500;2023-07-31T04:54:27;17.10;99.90
13211;DHT22;6670;51.53087800;7.23266500;2023-07-31T04:56:54;17.10;99.90
13211;DHT22;6670;51.53087800;7.23266500;2023-07-31T04:59:22;17.10;99.90
13211;DHT22;6670;51.53087800;7.23266500;2023-07-31T05:01:49;17.10;99.90
13211;DHT22;6670;51.53087800;7.23266500;2023-07-31T05:04:16;17.10;99.90
13211;DHT22;6670;51.53087800;7.23266500;2023-07-31T05:06:45;17.00;99.90
13211;DHT22;6670;51.53087800;7.23266500;2023-07-31T05:09:13;17.00;99.90
13211;DHT22;6670;51.53087800;7.23266500;2023-07-31T05:11:40;17.00;99.90
13211;DHT22;6670;51.53087800;7.23266500;2023-07-31T05:14:09;17.00;99.90
13211;DHT22;6670;51.53087800;7.23266500;2023-07-31T05:16:36;17.00;99.90
13211;DHT22;6670;51.53087800;7.23266500;2023-07-31T05:19:04;17.00;99.90
13211;DHT22;6670;51.53087800;7.23266500;2023-07-31T05:21:31;17.00;99.90
13211;DHT22;6670;51.53087800;7.23266500;2023-07-31T05:24:00;17.00;99.90
13211;DHT22;6670;51.53087800;7.23266500;2023-07-31T05:26:27;17.10;99.90
13211;DHT22;6670;51.53087800;7.23266500;2023-07-31T05:28:55;17.10;99.90
13211;DHT22;6670;51.53087800;7.23266500;2023-07-31T05:31:24;17.10;99.90
13211;DHT22;6670;51.53087800;7.23266500;2023-07-31T05:33:52;17.10;99.90
13211;DHT22;6670;51.53087800;7.23266500;2023-07-31T05:36:19;17.10;99.90
13211;DHT22;6670;51.53087800;7.23266500;2023-07-31T05:38:46;17.10;99.90
13211;DHT22;6670;51.53087800;7.23266500;2023-07-31T05:41:15;17.10;99.90
13211;DHT22;6670;51.53087800;7.23266500;2023-07-31T05:43:44;17.10;99.90
13211;DHT22;6670;51.53087800;7.23266500;2023-07-31T05:46:11;17.10;99.90
13211;DHT22;6670;51.53087800;7.23266500;2023-07-31T05:48:39;17.20;99.90
13211;DHT22;6670;51.53087800;7.23266500;2023-07-31T05:51:06;17.20;99.90
13211;DHT22;6670;51.53087800;7.23266500;2023-07-31T05:53:35;17.20;99.90
13211;DHT22;6670;51.53087800;7.23266500;2023-07-31T05:56:06;17.20;99.90
13211;DHT22;6670;51.53087800;7.23266500;2023-07-31T05:58:37;17.20;99.90
13211;DHT22;6670;51.53087800;7.23266500;2023-07-31T06:01:04;17.20;99.90
13211;DHT22;6670;51.53087800;7.23266500;2023-07-31T06:03:32;17.20;99.90
13211;DHT22;6670;51.53087800;7.23266500;2023-07-31T06:06:00;17.30;99.90
13211;DHT22;6670;51.53087800;7.23266500;2023-07-31T06:08:27;17.20;99.90
13211;DHT22;6670;51.53087800;7.23266500;2023-07-31T06:10:55;17.20;99.90
13211;DHT22;6670;51.53087800;7.23266500;2023-07-31T06:13:26;17.10;99.90
13211;DHT22;6670;51.53087800;7.23266500;2023-07-31T06:15:55;17.10;99.90
13211;DHT22;6670;51.53087800;7.23266500;2023-07-31T06:18:23;17.10;99.90
13211;DHT22;6670;51.53087800;7.23266500;2023-07-31T06:20:50;17.10;99.90
13211;DHT22;6670;51.53087800;7.23266500;2023-07-31T06:23:19;17.10;99.90
13211;DHT22;6670;51.53087800;7.23266500;2023-07-31T06:25:47;17.10;99.90
13211;DHT22;6670;51.53087800;7.23266500;2023-07-31T06:28:14;17.20;99.90
13211;DHT22;6670;51.53087800;7.23266500;2023-07-31T06:30:41;17.20;99.90
13211;DHT22;6670;51.53087800;7.23266500;2023-07-31T06:33:10;17.20;99.90
13211;DHT22;6670;51.53087800;7.23266500;2023-07-31T06:35:38;17.20;99.90
13211;DHT22;6670;51.53087800;7.23266500;2023-07-31T06:38:05;17.20;99.90
13211;DHT22;6670;51.53087800;7.23266500;2023-07-31T06:40:33;17.20;99.90
13211;DHT22;6670;51.53087800;7.23266500;2023-07-31T06:43:00;17.20;99.90
13211;DHT22;6670;51.53087800;7.23266500;2023-07-31T06:45:34;17.20;99.90
13211;DHT22;6670;51.53087800;7.23266500;2023-07-31T06:48:02;17.10;99.90
13211;DHT22;6670;51.53087800;7.23266500;2023-07-31T06:50:31;17.20;99.90
13211;DHT22;6670;51.53087800;7.23266500;2023-07-31T06:52:59;17.20;99.90
13211;DHT22;6670;51.53087800;7.23266500;2023-07-31T06:55:26;17.20;99.90
13211;DHT22;6670;51.53087800;7.23266500;2023-07-31T06:57:55;17.20;99.90
13211;DHT22;6670;51.53087800;7.23266500;2023-07-31T07:00:23;17.20;99.90
13211;DHT22;6670;51.53087800;7.23266500;2023-07-31T07:02:51;17.20;99.90
13211;DHT22;6670;51.53087800;7.23266500;2023-07-31T07:05:18;17.20;99.90
13211;DHT22;6670;51.53087800;7.23266500;2023-07-31T07:07:49;17.20;99.90
13211;DHT22;6670;51.53087800;7.23266500;2023-07-31T07:10:17;17.20;99.90
13211;DHT22;6670;51.53087800;7.23266500;2023-07-31T07:12:45;17.30;99.90
13211;DHT22;6670;51.53087800;7.23266500;2023-07-31T07:15:13;17.30;99.90
13211;DHT22;6670;51.53087800;7.23266500;2023-07-31T07:17:40;17.30;99.90
13211;DHT22;6670;51.53087800;7.23266500;2023-07-31T07:20:10;17.30;99.90
13211;DHT22;6670;51.53087800;7.23266500;2023-07-31T07:22:38;17.20;99.90
13211;DHT22;6670;51.53087800;7.23266500;2023-07-31T07:25:08;17.20;99.90
13211;DHT22;6670;51.53087800;7.23266500;2023-07-31T07:27:36;17.20;99.90
13211;DHT22;6670;51.53087800;7.23266500;2023-07-31T07:30:04;17.20;99.90
13211;DHT22;6670;51.53087800;7.23266500;2023-07-31T07:32:34;17.20;99.90
13211;DHT22;6670;51.53087800;7.23266500;2023-07-31T07:35:01;17.20;99.90
13211;DHT22;6670;51.53087800;7.23266500;2023-07-31T07:37:29;17.10;99.90
13211;DHT22;6670;51.53087800;7.23266500;2023-07-31T07:39:56;17.10;99.90
13211;DHT22;6670;51.53087800;7.23266500;2023-07-31T07:42:25;17.10;99.90
13211;DHT22;6670;51.53087800;7.23266500;2023-07-31T07:44:53;17.10;99.90
13211;DHT22;6670;51.53087800;7.23266500;2023-07-31T07:47:20;17.10;99.90
13211;DHT22;6670;51.53087800;7.23266500;2023-07-31T07:49:48;17.20;99.90
13211;DHT22;6670;51.53087800;7.23266500;2023-07-31T07:52:18;17.20;99.90
13211;DHT22;6670;51.53087800;7.23266500;2023-07-31T07:54:46;17.20;99.90
13211;DHT22;6670;51.53087800;7.23266500;2023-07-31T07:57:14;17.20;99.90
13211;DHT22;6670;51.53087800;7.23266500;2023-07-31T07:59:42;17.20;99.90
13211;DHT22;6670;51.53087800;7.23266500;2023-07-31T08:02:11;17.20;99.90
13211;DHT22;6670;51.53087800;7.23266500;2023-07-31T08:04:38;17.10;99.90
13211;DHT22;6670;51.53087800;7.23266500;2023-07-31T08:07:06;17.10;99.90
13211;DHT22;6670;51.53087800;7.23266500;2023-07-31T08:09:33;17.20;99.90
13211;DHT22;6670;51.53087800;7.23266500;2023-07-31T08:12:01;17.10;99.90
13211;DHT22;6670;51.53087800;7.23266500;2023-07-31T08:14:29;17.10;99.90
13211;DHT22;6670;51.53087800;7.23266500;2023-07-31T08:16:58;17.10;99.90
13211;DHT22;6670;51.53087800;7.23266500;2023-07-31T08:19:25;17.00;99.90
13211;DHT22;6670;51.53087800;7.23266500;2023-07-31T08:21:53;17.10;99.90
13211;DHT22;6670;51.53087800;7.23266500;2023-07-31T08:24:21;17.00;99.90
13211;DHT22;6670;51.53087800;7.23266500;2023-07-31T08:26:49;17.00;99.90
13211;DHT22;6670;51.53087800;7.23266500;2023-07-31T08:29:16;17.00;99.90
13211;DHT22;6670;51.53087800;7.23266500;2023-07-31T08:31:44;17.00;99.90
13211;DHT22;6670;51.53087800;7.23266500;2023-07-31T08:34:12;17.00;99.90
13211;DHT22;6670;51.53087800;7.23266500;2023-07-31T08:36:40;17.00;99.90
13211;DHT22;6670;51.53087800;7.23266500;2023-07-31T08:39:07;17.00;99.90
13211;DHT22;6670;51.53087800;7.23266500;2023-07-31T08:41:37;16.90;99.90
13211;DHT22;6670;51.53087800;7.23266500;2023-07-31T08:44:07;17.00;99.90
13211;DHT22;6670;51.53087800;7.23266500;2023-07-31T08:46:34;17.10;99.90
13211;DHT22;6670;51.53087800;7.23266500;2023-07-31T08:49:04;17.00;99.90
13211;DHT22;6670;51.53087800;7.23266500;2023-07-31T08:51:34;17.00;99.90
13211;DHT22;6670;51.53087800;7.23266500;2023-07-31T08:54:02;17.00;99.90
13211;DHT22;6670;51.53087800;7.23266500;2023-07-31T08:56:31;16.90;99.90
13211;DHT22;6670;51.53087800;7.23266500;2023-07-31T08:59:02;17.00;99.90
13211;DHT22;6670;51.53087800;7.23266500;2023-07-31T09:01:43;16.90;99.90
13211;DHT22;6670;51.53087800;7.23266500;2023-07-31T09:04:12;16.90;99.90
13211;DHT22;6670;51.53087800;7.23266500;2023-07-31T09:06:42;17.00;99.90
13211;DHT22;6670;51.53087800;7.23266500;2023-07-31T09:09:16;17.00;99.90
13211;DHT22;6670;51.53087800;7.23266500;2023-07-31T09:11:43;17.00;99.90
13211;DHT22;6670;51.53087800;7.23266500;2023-07-31T09:14:11;17.00;99.90
13211;DHT22;6670;51.53087800;7.23266500;2023-07-31T09:16:52;17.00;99.90
13211;DHT22;6670;51.53087800;7.23266500;2023-07-31T09:19:25;17.00;99.90
13211;DHT22;6670;51.53087800;7.23266500;2023-07-31T09:21:54;17.00;99.90
13211;DHT22;6670;51.53087800;7.23266500;2023-07-31T09:24:25;17.00;99.90
13211;DHT22;6670;51.53087800;7.23266500;2023-07-31T09:26:54;17.00;99.90
13211;DHT22;6670;51.53087800;7.23266500;2023-07-31T09:29:31;17.00;99.90
13211;DHT22;6670;51.53087800;7.23266500;2023-07-31T09:31:58;17.00;99.90
13211;DHT22;6670;51.53087800;7.23266500;2023-07-31T09:34:37;17.00;99.90
13211;DHT22;6670;51.53087800;7.23266500;2023-07-31T09:37:06;17.00;99.90
13211;DHT22;6670;51.53087800;7.23266500;2023-07-31T09:39:46;17.00;99.90
13211;DHT22;6670;51.53087800;7.23266500;2023-07-31T09:42:25;17.00;99.90
13211;DHT22;6670;51.53087800;7.23266500;2023-07-31T09:44:53;17.00;99.90
13211;DHT22;6670;51.53087800;7.23266500;2023-07-31T09:47:21;17.00;99.90
13211;DHT22;6670;51.53087800;7.23266500;2023-07-31T09:49:52;17.00;99.90
13211;DHT22;6670;51.53087800;7.23266500;2023-07-31T09:52:21;17.10;99.90
13211;DHT22;6670;51.53087800;7.23266500;2023-07-31T09:54:49;17.10;99.90
13211;DHT22;6670;51.53087800;7.23266500;2023-07-31T09:57:17;17.10;99.90
13211;DHT22;6670;51.53087800;7.23266500;2023-07-31T09:59:46;17.10;99.90
13211;DHT22;6670;51.53087800;7.23266500;2023-07-31T10:02:22;17.20;99.90
13211;DHT22;6670;51.53087800;7.23266500;2023-07-31T10:04:50;17.20;99.90
13211;DHT22;6670;51.53087800;7.23266500;2023-07-31T10:07:18;17.20;99.90
13211;DHT22;6670;51.53087800;7.23266500;2023-07-31T10:09:49;17.20;99.90
13211;DHT22;6670;51.53087800;7.23266500;2023-07-31T10:12:19;17.20;99.90
13211;DHT22;6670;51.53087800;7.23266500;2023-07-31T10:14:46;17.20;99.90
13211;DHT22;6670;51.53087800;7.23266500;2023-07-31T10:17:14;17.20;99.90
13211;DHT22;6670;51.53087800;7.23266500;2023-07-31T10:19:43;17.20;99.90
13211;DHT22;6670;51.53087800;7.23266500;2023-07-31T10:22:11;17.30;99.90
13211;DHT22;6670;51.53087800;7.23266500;2023-07-31T10:24:39;17.30;99.90
13211;DHT22;6670;51.53087800;7.23266500;2023-07-31T10:27:09;17.30;99.90
13211;DHT22;6670;51.53087800;7.23266500;2023-07-31T10:29:38;17.30;99.90
13211;DHT22;6670;51.53087800;7.23266500;2023-07-31T10:32:07;17.30;99.90
13211;DHT22;6670;51.53087800;7.23266500;2023-07-31T10:34:36;17.40;99.90
13211;DHT22;6670;51.53087800;7.23266500;2023-07-31T10:40:18;17.40;99.90
13211;DHT22;6670;51.53087800;7.23266500;2023-07-31T10:42:48;17.30;99.90
13211;DHT22;6670;51.53087800;7.23266500;2023-07-31T10:45:24;17.30;99.90
13211;DHT22;6670;51.53087800;7.23266500;2023-07-31T10:47:59;17.30;99.90
13211;DHT22;6670;51.53087800;7.23266500;2023-07-31T10:50:28;17.30;99.90
13211;DHT22;6670;51.53087800;7.23266500;2023-07-31T10:52:57;17.20;99.90
13211;DHT22;6670;51.53087800;7.23266500;2023-07-31T10:55:26;17.20;99.90
13211;DHT22;6670;51.53087800;7.23266500;2023-07-31T10:58:17;17.30;99.90
13211;DHT22;6670;51.53087800;7.23266500;2023-07-31T11:00:45;17.30;99.90
13211;DHT22;6670;51.53087800;7.23266500;2023-07-31T11:03:15;17.30;99.90
13211;DHT22;6670;51.53087800;7.23266500;2023-07-31T11:05:44;17.20;99.90
13211;DHT22;6670;51.53087800;7.23266500;2023-07-31T11:08:15;17.30;99.90
13211;DHT22;6670;51.53087800;7.23266500;2023-07-31T11:10:43;17.30;99.90
13211;DHT22;6670;51.53087800;7.23266500;2023-07-31T11:13:11;17.30;99.90
13211;DHT22;6670;51.53087800;7.23266500;2023-07-31T11:15:40;17.30;99.90
13211;DHT22;6670;51.53087800;7.23266500;2023-07-31T11:18:08;17.30;99.90
13211;DHT22;6670;51.53087800;7.23266500;2023-07-31T11:20:37;17.40;99.90
13211;DHT22;6670;51.53087800;7.23266500;2023-07-31T11:23:08;17.40;99.90
13211;DHT22;6670;51.53087800;7.23266500;2023-07-31T11:25:37;17.50;99.90
13211;DHT22;6670;51.53087800;7.23266500;2023-07-31T11:28:07;17.50;99.90
13211;DHT22;6670;51.53087800;7.23266500;2023-07-31T11:30:35;17.50;99.90
13211;DHT22;6670;51.53087800;7.23266500;2023-07-31T11:33:13;17.50;99.90
13211;DHT22;6670;51.53087800;7.23266500;2023-07-31T11:35:43;17.60;99.90
13211;DHT22;6670;51.53087800;7.23266500;2023-07-31T11:38:11;17.60;99.90
13211;DHT22;6670;51.53087800;7.23266500;2023-07-31T11:40:46;17.70;99.90
13211;DHT22;6670;51.53087800;7.23266500;2023-07-31T11:43:14;17.60;99.90
13211;DHT22;6670;51.53087800;7.23266500;2023-07-31T11:46:12;17.70;99.90
13211;DHT22;6670;51.53087800;7.23266500;2023-07-31T11:48:42;17.80;99.90
13211;DHT22;6670;51.53087800;7.23266500;2023-07-31T11:51:22;17.80;99.90
13211;DHT22;6670;51.53087800;7.23266500;2023-07-31T11:53:51;17.90;99.90
13211;DHT22;6670;51.53087800;7.23266500;2023-07-31T11:56:21;18.00;99.90
13211;DHT22;6670;51.53087800;7.23266500;2023-07-31T11:58:57;18.00;99.90
13211;DHT22;6670;51.53087800;7.23266500;2023-07-31T12:01:26;18.00;99.90
13211;DHT22;6670;51.53087800;7.23266500;2023-07-31T12:03:56;18.10;99.90
13211;DHT22;6670;51.53087800;7.23266500;2023-07-31T12:06:32;18.10;99.90
13211;DHT22;6670;51.53087800;7.23266500;2023-07-31T12:09:02;18.20;99.90
13211;DHT22;6670;51.53087800;7.23266500;2023-07-31T12:11:30;18.30;99.90
13211;DHT22;6670;51.53087800;7.23266500;2023-07-31T12:13:57;18.30;99.90
13211;DHT22;6670;51.53087800;7.23266500;2023-07-31T12:16:26;18.30;99.90
13211;DHT22;6670;51.53087800;7.23266500;2023-07-31T12:18:53;18.20;99.90
13211;DHT22;6670;51.53087800;7.23266500;2023-07-31T12:21:22;18.30;99.90
13211;DHT22;6670;51.53087800;7.23266500;2023-07-31T12:23:51;18.20;99.90
13211;DHT22;6670;51.53087800;7.23266500;2023-07-31T12:26:19;18.10;99.90
13211;DHT22;6670;51.53087800;7.23266500;2023-07-31T12:28:48;18.10;99.90
13211;DHT22;6670;51.53087800;7.23266500;2023-07-31T12:31:17;18.10;99.90
13211;DHT22;6670;51.53087800;7.23266500;2023-07-31T12:33:45;18.10;99.90
13211;DHT22;6670;51.53087800;7.23266500;2023-07-31T12:36:14;18.10;99.90
13211;DHT22;6670;51.53087800;7.23266500;2023-07-31T12:38:44;18.00;99.90
13211;DHT22;6670;51.53087800;7.23266500;2023-07-31T12:41:12;18.00;99.90
13211;DHT22;6670;51.53087800;7.23266500;2023-07-31T12:43:41;18.00;99.90
13211;DHT22;6670;51.53087800;7.23266500;2023-07-31T12:46:08;18.00;99.90
13211;DHT22;6670;51.53087800;7.23266500;2023-07-31T12:48:36;18.00;99.90
13211;DHT22;6670;51.53087800;7.23266500;2023-07-31T12:51:04;17.90;99.90
13211;DHT22;6670;51.53087800;7.23266500;2023-07-31T12:53:32;17.90;99.90
13211;DHT22;6670;51.53087800;7.23266500;2023-07-31T12:56:01;18.00;99.90
13211;DHT22;6670;51.53087800;7.23266500;2023-07-31T12:58:29;18.00;99.90
13211;DHT22;6670;51.53087800;7.23266500;2023-07-31T13:00:56;18.00;99.90
13211;DHT22;6670;51.53087800;7.23266500;2023-07-31T13:03:24;18.00;99.90
13211;DHT22;6670;51.53087800;7.23266500;2023-07-31T13:05:52;18.10;99.90
13211;DHT22;6670;51.53087800;7.23266500;2023-07-31T13:08:20;18.20;99.90
13211;DHT22;6670;51.53087800;7.23266500;2023-07-31T13:10:47;18.20;99.90
13211;DHT22;6670;51.53087800;7.23266500;2023-07-31T13:13:16;18.20;99.90
13211;DHT22;6670;51.53087800;7.23266500;2023-07-31T13:15:44;18.30;99.90
13211;DHT22;6670;51.53087800;7.23266500;2023-07-31T13:18:11;18.30;99.90
13211;DHT22;6670;51.53087800;7.23266500;2023-07-31T13:20:38;18.20;99.90
13211;DHT22;6670;51.53087800;7.23266500;2023-07-31T13:23:06;18.30;99.90
13211;DHT22;6670;51.53087800;7.23266500;2023-07-31T13:25:33;18.30;99.90
13211;DHT22;6670;51.53087800;7.23266500;2023-07-31T13:28:01;18.30;99.90
13211;DHT22;6670;51.53087800;7.23266500;2023-07-31T13:30:29;18.20;99.90
13211;DHT22;6670;51.53087800;7.23266500;2023-07-31T13:33:03;18.20;99.90
13211;DHT22;6670;51.53087800;7.23266500;2023-07-31T13:35:30;18.30;99.90
13211;DHT22;6670;51.53087800;7.23266500;2023-07-31T13:37:58;18.30;99.90
13211;DHT22;6670;51.53087800;7.23266500;2023-07-31T13:40:26;18.30;99.90
13211;DHT22;6670;51.53087800;7.23266500;2023-07-31T13:42:53;18.30;99.90
13211;DHT22;6670;51.53087800;7.23266500;2023-07-31T13:45:21;18.40;99.90
13211;DHT22;6670;51.53087800;7.23266500;2023-07-31T13:47:51;18.40;99.90